KG4QXL-1 Weather Reports


time (UTC)temp
F
wind
direction
speed
knots
gust
knots
rain 1hr
in
rain 24hr
in
rain mn
in
humidity
%
barometer
mb
20260510033549 50 0.0 0.0 0.00 0.00 0.00 93 1019.3
20260510032549 50 0.0 0.0 0.00 0.00 0.00 90 1019.3
20260510031549 51 0.0 0.0 0.00 0.00 0.00 90 1019.1
20260510030549 51 0.0 0.0 0.00 0.00 0.00 90 1018.8
20260510025549 51 0.0 0.0 0.00 0.00 0.00 90 1018.8
20260510024609 52 0.0 0.0 0.00 0.00 0.00 88 1018.7
20260510023549 53 0.0 0.0 0.00 0.00 0.00 87 1018.5
20260510022549 53 0.0 0.0 0.00 0.00 0.00 86 1018.3
20260510021549 54 0.0 0.0 0.00 0.00 0.00 84 1018.1
20260510020549 54 0.0 0.0 0.00 0.00 0.00 83 1017.7
20260510015549 54 0.0 0.0 0.00 0.00 0.00 84 1017.6
20260510014549 54 0.0 0.9 0.00 0.00 0.00 83 1017.6
20260510013549 56 0.0 0.0 0.00 0.00 0.00 80 1017.2
20260510012548 56 0.0 0.0 0.00 0.00 0.00 80 1017.3
20260510011549 57 0.0 0.0 0.00 0.00 0.00 79 1017.0
20260510010549 58 0.0 0.0 0.00 0.00 0.00 78 1016.6
20260510005548 58 0.0 0.0 0.00 0.00 0.00 76 1016.5
20260510004548 59 0.0 0.0 0.00 0.00 0.00 76 1016.2
20260510003549 60 0.0 0.0 0.00 0.00 0.00 75 1016.1
20260510002549 61 0.0 0.0 0.00 0.00 0.00 71 1015.9
20260510001549 62 0.0 0.0 0.00 0.00 0.00 68 1015.8
20260510000549 64 0.0 0.0 0.00 0.00 0.00 65 1015.7
20260509235549 66 0.0 0.0 0.00 0.00 0.00 61 1015.7
20260509234549 67 0.0 0.0 0.00 0.00 0.00 57 1015.6
20260509233549 67 0.0 0.9 0.00 0.00 0.00 56 1015.6
20260509232609 68 0.0 0.0 0.00 0.00 0.00 55 1015.4
20260509231549 69 0.0 0.9 0.00 0.00 0.00 55 1015.3
20260509230609 69 20 0.0 2.6 0.00 0.00 0.00 54 1015.2
20260509225549 69 94 0.0 0.9 0.00 0.00 0.00 55 1015.2
20260509224549 69 85 0.0 1.7 0.00 0.00 0.00 55 1015.3
20260509223549 70 0.0 0.0 0.00 0.00 0.00 54 1015.1
20260509222549 70 92 0.0 0.9 0.00 0.00 0.00 53 1015.3
20260509221549 71 104 0.0 0.9 0.00 0.00 0.00 50 1015.2
20260509220549 73 0.0 0.0 0.00 0.00 0.00 48 1015.1
20260509215549 74 82 0.0 1.7 0.00 0.00 0.00 46 1015.1
20260509214549 73 110 0.0 0.9 0.00 0.00 0.00 46 1014.9
20260509213609 74 103 0.9 0.9 0.00 0.00 0.00 45 1014.8
20260509212551 71 0.0 0.0 0.00 0.00 0.00 50 1015.0
20260509211551 72 0.0 0.0 0.00 0.00 0.00 47 1014.7
20260509210551 73 0.0 0.9 0.00 0.00 0.00 47 1014.7
20260509205551 73 223 0.9 0.9 0.00 0.00 0.00 45 1014.6
20260509204611 72 219 0.0 0.9 0.00 0.00 0.00 45 1014.6
20260509203551 72 264 0.0 1.7 0.00 0.00 0.00 44 1014.6
20260509202551 76 233 1.7 3.5 0.00 0.00 0.00 41 1014.1
20260509201551 74 86 0.0 0.9 0.00 0.00 0.00 42 1014.3
20260509200611 73 202 0.0 1.7 0.00 0.00 0.00 43 1014.4
20260509195551 73 181 0.9 1.7 0.00 0.00 0.00 42 1014.5
20260509194551 75 130 0.0 1.7 0.00 0.00 0.00 42 1014.6
20260509193551 77 114 0.9 1.7 0.00 0.00 0.00 41 1014.6
20260509192551 75 228 0.9 3.5 0.00 0.00 0.00 42 1014.7
20260509191551 74 221 0.9 2.6 0.00 0.00 0.00 43 1014.6
20260509190551 73 158 0.9 2.6 0.00 0.00 0.00 45 1014.8
20260509185611 72 145 0.9 1.7 0.00 0.00 0.00 46 1015.2
20260509184552 73 46 0.9 2.6 0.00 0.00 0.00 46 1015.0
20260509183551 73 107 0.0 0.9 0.00 0.00 0.00 47 1015.1
20260509182551 70 29 0.0 0.9 0.00 0.00 0.00 48 1015.6
20260509181551 70 0.0 0.9 0.00 0.00 0.00 50 1015.7
20260509180552 70 136 0.0 0.9 0.00 0.00 0.00 48 1016.1
20260509175551 73 108 0.0 1.7 0.00 0.00 0.00 46 1015.9
20260509174550 71 80 0.9 1.7 0.00 0.00 0.00 48 1015.8
20260509173551 70 117 0.9 2.6 0.00 0.00 0.00 47 1015.8
20260509172551 69 71 0.9 3.5 0.00 0.00 0.00 49 1015.9
20260509171550 69 0.0 2.6 0.00 0.00 0.00 50 1016.2
20260509170551 68 344 0.0 0.9 0.00 0.00 0.00 48 1016.6
20260509165551 68 20 0.9 2.6 0.00 0.00 0.00 45 1016.5
20260509164611 69 26 0.9 2.6 0.00 0.00 0.00 45 1016.2
20260509163551 69 90 0.0 0.9 0.00 0.00 0.00 46 1016.3
20260509162551 70 247 0.0 1.7 0.00 0.00 0.00 45 1016.2
20260509161551 70 355 0.9 1.7 0.00 0.00 0.00 43 1016.0
20260509160551 70 245 0.9 2.6 0.00 0.00 0.00 43 1015.9
20260509155611 71 282 0.9 3.5 0.00 0.00 0.00 42 1015.5
20260509154551 71 335 0.9 2.6 0.00 0.00 0.00 46 1015.2
20260509153551 71 84 0.0 2.6 0.00 0.00 0.00 46 1015.5
20260509152611 70 256 0.9 3.5 0.00 0.00 0.00 46 1015.8
20260509151551 69 272 1.7 3.5 0.00 0.00 0.00 48 1016.0
20260509150611 69 258 0.0 1.7 0.00 0.00 0.00 48 1016.0
20260509145611 67 261 0.0 2.6 0.00 0.00 0.00 49 1016.3
20260509144551 67 233 0.9 2.6 0.00 0.00 0.00 50 1016.3
20260509143551 66 64 0.0 1.7 0.00 0.00 0.00 52 1016.3
20260509142551 65 316 0.9 1.7 0.00 0.00 0.00 53 1016.5
20260509141551 65 0.0 0.0 0.00 0.00 0.00 52 1016.8
20260509140551 63 34 0.0 1.7 0.00 0.00 0.00 54 1017.0
20260509135552 63 0.0 0.0 0.00 0.00 0.00 55 1017.3
20260509134551 62 75 0.0 0.9 0.00 0.00 0.00 55 1017.5
20260509133551 61 75 0.0 0.9 0.00 0.00 0.00 56 1017.6
20260509132551 61 0.0 0.0 0.00 0.00 0.00 55 1017.4
20260509131551 61 0.0 0.9 0.00 0.00 0.00 59 1017.3
20260509130552 59 0.0 0.0 0.00 0.00 0.00 67 1017.5
20260509125631 58 0.0 0.0 0.00 0.00 0.00 71 1017.8
20260509124551 57 0.0 0.0 0.00 0.00 0.00 73 1017.9
20260509123550 57 0.0 0.0 0.00 0.00 0.00 72 1018.0
20260509122551 56 0.0 0.0 0.00 0.00 0.00 73 1018.0
20260509121612 56 0.0 0.0 0.00 0.00 0.00 74 1018.2
20260509120553 56 0.0 0.0 0.00 0.00 0.00 73 1018.1
20260509115553 55 0.0 0.0 0.00 0.00 0.00 74 1018.0
20260509114553 55 0.0 0.0 0.00 0.00 0.00 64 1018.1
20260509113553 55 0.0 0.0 0.00 0.00 0.00 69 1018.1
20260509112553 55 0.0 0.0 0.00 0.00 0.00 63 1018.0
20260509111553 55 0.0 0.0 0.00 0.00 0.00 61 1018.1
20260509110553 55 0.0 0.0 0.00 0.00 0.00 61 1017.9
20260509105554 55 0.0 0.0 0.00 0.00 0.00 60 1018.0
20260509104553 55 0.0 0.0 0.00 0.00 0.00 58 1017.8
20260509103553 55 0.0 0.0 0.00 0.00 0.00 59 1017.8
20260509102633 55 0.0 0.0 0.00 0.00 0.00 57 1018.1
20260509101554 55 0.0 0.0 0.00 0.00 0.00 57 1018.1
20260509100553 56 0.0 0.0 0.00 0.00 0.00 58 1017.9
20260509095553 57 174 0.0 0.9 0.00 0.00 0.00 57 1017.8
20260509094553 57 192 0.0 0.9 0.00 0.00 0.00 54 1017.9
20260509093553 57 184 0.0 0.9 0.00 0.00 0.00 55 1017.9
20260509092553 57 204 0.9 0.9 0.00 0.00 0.00 53 1018.0
20260509091613 57 0.0 0.0 0.00 0.00 0.00 55 1017.7
20260509090553 57 208 0.0 0.9 0.00 0.00 0.00 55 1017.8
20260509085553 57 187 0.0 0.9 0.00 0.00 0.00 56 1017.9
20260509084556 57 0.0 0.0 0.00 0.00 0.00 55 1018.1
20260509083553 56 0.0 0.9 0.00 0.00 0.00 59 1018.3
20260509082553 55 0.0 0.0 0.00 0.00 0.00 63 1018.5
20260509081553 55 0.0 0.0 0.00 0.00 0.00 55 1018.5
20260509080613 55 0.0 0.0 0.00 0.00 0.00 54 1018.5
20260509075613 55 0.0 0.0 0.00 0.00 0.00 54 1018.6
20260509074552 55 0.0 0.0 0.00 0.00 0.00 55 1018.8
20260509073553 56 213 0.0 0.9 0.00 0.00 0.00 54 1018.7
20260509072552 56 0.0 0.9 0.00 0.00 0.00 53 1018.6
20260509071553 56 0.0 0.0 0.00 0.00 0.00 53 1018.8
20260509070553 56 0.0 0.0 0.00 0.00 0.00 50 1018.7
20260509065613 56 0.0 0.0 0.00 0.00 0.00 51 1018.8
20260509064553 55 0.0 0.0 0.00 0.00 0.00 52 1018.9
20260509063553 55 0.0 0.0 0.00 0.00 0.00 54 1018.8
20260509062552 58 160 0.9 1.7 0.00 0.00 0.00 51 1018.8
20260509061553 59 163 1.7 3.5 0.00 0.00 0.00 46 1018.8
20260509060553 59 154 0.9 1.7 0.00 0.00 0.00 47 1018.8
20260509055554 57 181 0.9 1.7 0.00 0.00 0.00 49 1019.1
20260509054553 57 178 0.9 1.7 0.00 0.00 0.00 51 1019.0
20260509053612 53 186 0.0 0.9 0.00 0.00 0.00 64 1019.1
20260509052553 56 215 0.0 1.7 0.00 0.00 0.00 60 1019.2
20260509051553 54 199 0.0 0.9 0.00 0.00 0.00 61 1019.3
20260509050552 52 0.0 0.0 0.00 0.00 0.00 66 1019.4
20260509045553 51 0.0 0.0 0.00 0.00 0.00 68 1019.3
20260509044613 50 0.0 0.0 0.00 0.00 0.00 72 1019.2
20260509043553 51 0.0 0.0 0.00 0.00 0.00 70 1019.5
20260509042553 50 0.0 0.0 0.00 0.00 0.00 69 1019.3
20260509041613 50 0.0 0.0 0.00 0.00 0.00 69 1019.4
20260509040614 50 0.0 0.0 0.00 0.00 0.00 71 1019.5
20260509035553 50 0.0 0.0 0.00 0.00 0.00 71 1019.2
20260509034553 50 0.0 0.0 0.00 0.00 0.00 72 1019.4